sensor_id;sensor_type;location;lat;lon;timestamp;P1;durP1;ratioP1;P2;durP2;ratioP2
14736;SDS011;7459;53.590;10.062;2023-05-10T00:00:54;7.18;;;2.50;;
14736;SDS011;7459;53.590;10.062;2023-05-10T00:03:20;6.70;;;2.73;;
14736;SDS011;7459;53.590;10.062;2023-05-10T00:05:45;5.07;;;2.30;;
14736;SDS011;7459;53.590;10.062;2023-05-10T00:08:11;6.97;;;2.30;;
14736;SDS011;7459;53.590;10.062;2023-05-10T00:10:37;6.72;;;3.15;;
14736;SDS011;7459;53.590;10.062;2023-05-10T00:13:03;5.93;;;2.90;;
14736;SDS011;7459;53.590;10.062;2023-05-10T00:15:29;4.95;;;2.20;;
14736;SDS011;7459;53.590;10.062;2023-05-10T00:17:55;5.45;;;2.22;;
14736;SDS011;7459;53.590;10.062;2023-05-10T00:20:21;5.55;;;2.38;;
14736;SDS011;7459;53.590;10.062;2023-05-10T00:22:47;6.03;;;2.23;;
14736;SDS011;7459;53.590;10.062;2023-05-10T00:25:13;4.80;;;2.40;;
14736;SDS011;7459;53.590;10.062;2023-05-10T00:27:39;5.60;;;2.40;;
14736;SDS011;7459;53.590;10.062;2023-05-10T00:30:05;7.47;;;2.75;;
14736;SDS011;7459;53.590;10.062;2023-05-10T00:32:31;5.30;;;2.13;;
14736;SDS011;7459;53.590;10.062;2023-05-10T00:34:57;5.93;;;2.33;;
14736;SDS011;7459;53.590;10.062;2023-05-10T00:37:23;6.80;;;2.58;;
14736;SDS011;7459;53.590;10.062;2023-05-10T00:39:49;6.10;;;2.50;;
14736;SDS011;7459;53.590;10.062;2023-05-10T00:42:14;6.32;;;2.50;;
14736;SDS011;7459;53.590;10.062;2023-05-10T00:44:40;5.63;;;2.30;;
14736;SDS011;7459;53.590;10.062;2023-05-10T00:47:06;8.13;;;2.55;;
14736;SDS011;7459;53.590;10.062;2023-05-10T00:49:32;6.03;;;2.70;;
14736;SDS011;7459;53.590;10.062;2023-05-10T00:51:58;5.43;;;2.33;;
14736;SDS011;7459;53.590;10.062;2023-05-10T00:54:24;6.15;;;2.20;;
14736;SDS011;7459;53.590;10.062;2023-05-10T00:56:50;4.72;;;2.25;;
14736;SDS011;7459;53.590;10.062;2023-05-10T00:59:16;6.50;;;2.90;;
14736;SDS011;7459;53.590;10.062;2023-05-10T01:01:46;8.53;;;2.87;;
14736;SDS011;7459;53.590;10.062;2023-05-10T01:04:12;5.85;;;2.63;;
14736;SDS011;7459;53.590;10.062;2023-05-10T01:06:39;9.82;;;2.88;;
14736;SDS011;7459;53.590;10.062;2023-05-10T01:09:06;6.38;;;2.40;;
14736;SDS011;7459;53.590;10.062;2023-05-10T01:11:33;6.13;;;2.67;;
14736;SDS011;7459;53.590;10.062;2023-05-10T01:14:00;6.18;;;2.33;;
14736;SDS011;7459;53.590;10.062;2023-05-10T01:16:27;8.98;;;2.55;;
14736;SDS011;7459;53.590;10.062;2023-05-10T01:18:57;7.88;;;2.40;;
14736;SDS011;7459;53.590;10.062;2023-05-10T01:24:37;9.38;;;2.67;;
14736;SDS011;7459;53.590;10.062;2023-05-10T01:30:35;5.57;;;2.10;;
14736;SDS011;7459;53.590;10.062;2023-05-10T01:34:09;8.60;;;2.60;;
14736;SDS011;7459;53.590;10.062;2023-05-10T01:37:02;6.97;;;2.50;;
14736;SDS011;7459;53.590;10.062;2023-05-10T01:39:45;5.40;;;2.65;;
14736;SDS011;7459;53.590;10.062;2023-05-10T01:42:23;5.50;;;2.45;;
14736;SDS011;7459;53.590;10.062;2023-05-10T01:45:02;7.57;;;2.65;;
14736;SDS011;7459;53.590;10.062;2023-05-10T01:48:05;8.73;;;2.67;;
14736;SDS011;7459;53.590;10.062;2023-05-10T01:50:34;6.03;;;2.30;;
14736;SDS011;7459;53.590;10.062;2023-05-10T01:53:05;4.82;;;2.67;;
14736;SDS011;7459;53.590;10.062;2023-05-10T01:55:35;5.30;;;2.60;;
14736;SDS011;7459;53.590;10.062;2023-05-10T01:58:08;6.40;;;2.67;;
14736;SDS011;7459;53.590;10.062;2023-05-10T02:00:36;5.20;;;2.38;;
14736;SDS011;7459;53.590;10.062;2023-05-10T02:03:08;7.10;;;2.37;;
14736;SDS011;7459;53.590;10.062;2023-05-10T02:05:35;6.50;;;2.40;;
14736;SDS011;7459;53.590;10.062;2023-05-10T02:08:03;5.78;;;2.55;;
14736;SDS011;7459;53.590;10.062;2023-05-10T02:10:32;6.05;;;2.40;;
14736;SDS011;7459;53.590;10.062;2023-05-10T02:13:00;5.43;;;2.65;;
14736;SDS011;7459;53.590;10.062;2023-05-10T02:15:28;4.77;;;2.40;;
14736;SDS011;7459;53.590;10.062;2023-05-10T02:17:55;5.60;;;2.47;;
14736;SDS011;7459;53.590;10.062;2023-05-10T02:20:22;8.05;;;2.35;;
14736;SDS011;7459;53.590;10.062;2023-05-10T02:22:50;7.28;;;2.75;;
14736;SDS011;7459;53.590;10.062;2023-05-10T02:25:20;5.97;;;2.63;;
14736;SDS011;7459;53.590;10.062;2023-05-10T02:27:48;5.60;;;2.80;;
14736;SDS011;7459;53.590;10.062;2023-05-10T02:30:15;6.13;;;2.72;;
14736;SDS011;7459;53.590;10.062;2023-05-10T02:32:43;6.30;;;3.35;;
14736;SDS011;7459;53.590;10.062;2023-05-10T02:35:09;6.55;;;2.50;;
14736;SDS011;7459;53.590;10.062;2023-05-10T02:37:36;7.43;;;2.65;;
14736;SDS011;7459;53.590;10.062;2023-05-10T02:40:04;5.53;;;2.47;;
14736;SDS011;7459;53.590;10.062;2023-05-10T02:42:32;5.25;;;2.70;;
14736;SDS011;7459;53.590;10.062;2023-05-10T02:45:02;7.82;;;2.83;;
14736;SDS011;7459;53.590;10.062;2023-05-10T02:47:36;7.55;;;3.35;;
14736;SDS011;7459;53.590;10.062;2023-05-10T02:50:01;6.07;;;2.70;;
14736;SDS011;7459;53.590;10.062;2023-05-10T02:52:28;5.50;;;2.78;;
14736;SDS011;7459;53.590;10.062;2023-05-10T02:55:04;6.85;;;2.60;;
14736;SDS011;7459;53.590;10.062;2023-05-10T02:57:34;5.95;;;2.40;;
14736;SDS011;7459;53.590;10.062;2023-05-10T03:00:06;6.77;;;2.40;;
14736;SDS011;7459;53.590;10.062;2023-05-10T03:02:32;5.30;;;2.08;;
14736;SDS011;7459;53.590;10.062;2023-05-10T03:04:57;6.32;;;2.65;;
14736;SDS011;7459;53.590;10.062;2023-05-10T03:07:23;6.90;;;2.10;;
14736;SDS011;7459;53.590;10.062;2023-05-10T03:09:49;6.70;;;2.50;;
14736;SDS011;7459;53.590;10.062;2023-05-10T03:12:18;8.63;;;2.60;;
14736;SDS011;7459;53.590;10.062;2023-05-10T03:18:18;5.75;;;2.78;;
14736;SDS011;7459;53.590;10.062;2023-05-10T03:20:48;4.88;;;2.58;;
14736;SDS011;7459;53.590;10.062;2023-05-10T03:25:47;7.70;;;2.70;;
14736;SDS011;7459;53.590;10.062;2023-05-10T03:28:15;8.43;;;2.50;;
14736;SDS011;7459;53.590;10.062;2023-05-10T03:30:43;7.13;;;2.40;;
14736;SDS011;7459;53.590;10.062;2023-05-10T03:33:09;5.63;;;2.60;;
14736;SDS011;7459;53.590;10.062;2023-05-10T03:35:35;7.38;;;2.65;;
14736;SDS011;7459;53.590;10.062;2023-05-10T03:38:01;5.03;;;2.60;;
14736;SDS011;7459;53.590;10.062;2023-05-10T03:40:27;7.07;;;3.28;;
14736;SDS011;7459;53.590;10.062;2023-05-10T03:42:56;5.75;;;2.78;;
14736;SDS011;7459;53.590;10.062;2023-05-10T03:45:22;5.93;;;2.70;;
14736;SDS011;7459;53.590;10.062;2023-05-10T03:47:48;6.82;;;3.20;;
14736;SDS011;7459;53.590;10.062;2023-05-10T03:50:13;5.57;;;2.90;;
14736;SDS011;7459;53.590;10.062;2023-05-10T03:52:39;5.30;;;2.57;;
14736;SDS011;7459;53.590;10.062;2023-05-10T03:55:05;6.03;;;2.30;;
14736;SDS011;7459;53.590;10.062;2023-05-10T03:57:31;5.63;;;2.58;;
14736;SDS011;7459;53.590;10.062;2023-05-10T03:59:58;11.60;;;2.70;;
14736;SDS011;7459;53.590;10.062;2023-05-10T04:02:24;8.20;;;2.72;;
14736;SDS011;7459;53.590;10.062;2023-05-10T04:04:50;5.55;;;2.72;;
14736;SDS011;7459;53.590;10.062;2023-05-10T04:07:16;6.73;;;3.17;;
14736;SDS011;7459;53.590;10.062;2023-05-10T04:09:41;7.10;;;2.65;;
14736;SDS011;7459;53.590;10.062;2023-05-10T04:12:07;6.33;;;2.77;;
14736;SDS011;7459;53.590;10.062;2023-05-10T04:14:33;6.20;;;3.05;;
14736;SDS011;7459;53.590;10.062;2023-05-10T04:16:59;5.82;;;3.10;;
14736;SDS011;7459;53.590;10.062;2023-05-10T04:19:28;7.07;;;2.70;;
14736;SDS011;7459;53.590;10.062;2023-05-10T04:21:57;5.10;;;2.63;;
14736;SDS011;7459;53.590;10.062;2023-05-10T04:24:23;7.00;;;3.03;;
14736;SDS011;7459;53.590;10.062;2023-05-10T04:26:49;7.32;;;3.40;;
14736;SDS011;7459;53.590;10.062;2023-05-10T04:29:15;4.77;;;2.60;;
14736;SDS011;7459;53.590;10.062;2023-05-10T04:31:41;5.22;;;2.58;;
14736;SDS011;7459;53.590;10.062;2023-05-10T04:34:06;9.37;;;2.70;;
14736;SDS011;7459;53.590;10.062;2023-05-10T04:36:32;6.28;;;2.65;;
14736;SDS011;7459;53.590;10.062;2023-05-10T04:39:00;6.03;;;2.70;;
14736;SDS011;7459;53.590;10.062;2023-05-10T04:41:27;5.97;;;2.75;;
14736;SDS011;7459;53.590;10.062;2023-05-10T04:43:54;9.32;;;3.30;;
14736;SDS011;7459;53.590;10.062;2023-05-10T04:46:20;7.00;;;2.75;;
14736;SDS011;7459;53.590;10.062;2023-05-10T04:48:45;6.20;;;2.77;;
14736;SDS011;7459;53.590;10.062;2023-05-10T04:51:11;8.50;;;2.90;;
14736;SDS011;7459;53.590;10.062;2023-05-10T04:53:37;6.63;;;2.70;;
14736;SDS011;7459;53.590;10.062;2023-05-10T04:56:03;7.40;;;2.80;;
14736;SDS011;7459;53.590;10.062;2023-05-10T04:58:29;6.22;;;2.67;;
14736;SDS011;7459;53.590;10.062;2023-05-10T05:00:54;5.20;;;2.90;;
14736;SDS011;7459;53.590;10.062;2023-05-10T05:03:20;8.02;;;2.88;;
14736;SDS011;7459;53.590;10.062;2023-05-10T05:05:47;6.95;;;3.08;;
14736;SDS011;7459;53.590;10.062;2023-05-10T05:08:12;6.60;;;2.83;;
14736;SDS011;7459;53.590;10.062;2023-05-10T05:10:38;5.68;;;2.45;;
14736;SDS011;7459;53.590;10.062;2023-05-10T05:13:04;4.70;;;2.40;;
14736;SDS011;7459;53.590;10.062;2023-05-10T05:15:30;7.53;;;2.70;;
14736;SDS011;7459;53.590;10.062;2023-05-10T05:17:56;6.85;;;2.78;;
14736;SDS011;7459;53.590;10.062;2023-05-10T05:20:22;6.87;;;2.73;;
14736;SDS011;7459;53.590;10.062;2023-05-10T05:22:47;5.90;;;2.77;;
14736;SDS011;7459;53.590;10.062;2023-05-10T05:25:13;5.65;;;2.88;;
14736;SDS011;7459;53.590;10.062;2023-05-10T05:27:40;6.40;;;2.60;;
14736;SDS011;7459;53.590;10.062;2023-05-10T05:30:07;7.75;;;3.40;;
14736;SDS011;7459;53.590;10.062;2023-05-10T05:32:33;6.72;;;2.92;;
14736;SDS011;7459;53.590;10.062;2023-05-10T05:34:59;7.30;;;2.70;;
14736;SDS011;7459;53.590;10.062;2023-05-10T05:37:25;7.63;;;3.58;;
14736;SDS011;7459;53.590;10.062;2023-05-10T05:39:51;6.50;;;2.88;;
14736;SDS011;7459;53.590;10.062;2023-05-10T05:42:17;6.93;;;2.93;;
14736;SDS011;7459;53.590;10.062;2023-05-10T05:44:43;8.18;;;2.42;;
14736;SDS011;7459;53.590;10.062;2023-05-10T05:47:09;8.75;;;2.95;;
14736;SDS011;7459;53.590;10.062;2023-05-10T05:49:35;7.00;;;2.67;;
14736;SDS011;7459;53.590;10.062;2023-05-10T05:52:01;7.40;;;3.10;;
14736;SDS011;7459;53.590;10.062;2023-05-10T05:54:28;6.47;;;2.90;;
14736;SDS011;7459;53.590;10.062;2023-05-10T05:56:55;7.63;;;2.97;;
14736;SDS011;7459;53.590;10.062;2023-05-10T05:59:25;6.13;;;2.70;;
14736;SDS011;7459;53.590;10.062;2023-05-10T06:01:51;7.75;;;3.25;;
14736;SDS011;7459;53.590;10.062;2023-05-10T06:04:17;6.50;;;3.22;;
14736;SDS011;7459;53.590;10.062;2023-05-10T06:06:43;6.85;;;2.85;;
14736;SDS011;7459;53.590;10.062;2023-05-10T06:09:10;7.80;;;2.90;;
14736;SDS011;7459;53.590;10.062;2023-05-10T06:11:36;7.43;;;3.17;;
14736;SDS011;7459;53.590;10.062;2023-05-10T06:14:02;6.53;;;2.97;;
14736;SDS011;7459;53.590;10.062;2023-05-10T06:16:29;7.35;;;2.60;;
14736;SDS011;7459;53.590;10.062;2023-05-10T06:18:56;7.22;;;2.88;;
14736;SDS011;7459;53.590;10.062;2023-05-10T06:21:21;7.00;;;2.63;;
14736;SDS011;7459;53.590;10.062;2023-05-10T06:23:47;6.60;;;2.95;;
14736;SDS011;7459;53.590;10.062;2023-05-10T06:26:13;5.60;;;2.43;;
14736;SDS011;7459;53.590;10.062;2023-05-10T06:28:38;8.85;;;3.42;;
14736;SDS011;7459;53.590;10.062;2023-05-10T06:31:05;6.90;;;2.88;;
14736;SDS011;7459;53.590;10.062;2023-05-10T06:33:31;6.97;;;2.70;;
14736;SDS011;7459;53.590;10.062;2023-05-10T06:35:57;10.68;;;4.85;;
14736;SDS011;7459;53.590;10.062;2023-05-10T06:38:23;7.70;;;2.85;;
14736;SDS011;7459;53.590;10.062;2023-05-10T06:40:49;5.97;;;2.80;;
14736;SDS011;7459;53.590;10.062;2023-05-10T06:43:14;6.47;;;2.72;;
14736;SDS011;7459;53.590;10.062;2023-05-10T06:45:41;6.90;;;3.28;;
14736;SDS011;7459;53.590;10.062;2023-05-10T06:48:06;6.17;;;3.00;;
14736;SDS011;7459;53.590;10.062;2023-05-10T06:50:32;8.13;;;3.03;;
14736;SDS011;7459;53.590;10.062;2023-05-10T06:52:59;6.30;;;3.00;;
14736;SDS011;7459;53.590;10.062;2023-05-10T06:55:25;8.00;;;2.80;;
14736;SDS011;7459;53.590;10.062;2023-05-10T06:57:51;8.10;;;2.80;;
14736;SDS011;7459;53.590;10.062;2023-05-10T07:00:17;6.45;;;3.42;;
14736;SDS011;7459;53.590;10.062;2023-05-10T07:02:44;5.88;;;3.03;;
14736;SDS011;7459;53.590;10.062;2023-05-10T07:05:10;10.43;;;2.73;;
14736;SDS011;7459;53.590;10.062;2023-05-10T07:07:36;6.40;;;2.90;;
14736;SDS011;7459;53.590;10.062;2023-05-10T07:10:02;7.38;;;3.67;;
14736;SDS011;7459;53.590;10.062;2023-05-10T07:12:28;7.57;;;2.93;;
14736;SDS011;7459;53.590;10.062;2023-05-10T07:14:53;5.95;;;2.80;;
14736;SDS011;7459;53.590;10.062;2023-05-10T07:17:19;6.13;;;3.20;;
14736;SDS011;7459;53.590;10.062;2023-05-10T07:19:45;6.93;;;3.60;;
14736;SDS011;7459;53.590;10.062;2023-05-10T07:22:11;7.15;;;3.13;;
14736;SDS011;7459;53.590;10.062;2023-05-10T07:24:37;7.30;;;2.95;;
14736;SDS011;7459;53.590;10.062;2023-05-10T07:27:02;8.37;;;2.73;;
14736;SDS011;7459;53.590;10.062;2023-05-10T07:29:29;6.20;;;3.00;;
14736;SDS011;7459;53.590;10.062;2023-05-10T07:31:54;8.20;;;3.50;;
14736;SDS011;7459;53.590;10.062;2023-05-10T07:34:20;9.13;;;3.55;;
14736;SDS011;7459;53.590;10.062;2023-05-10T07:36:46;7.13;;;4.20;;
14736;SDS011;7459;53.590;10.062;2023-05-10T07:39:12;6.82;;;2.75;;
14736;SDS011;7459;53.590;10.062;2023-05-10T07:41:37;6.03;;;3.28;;
14736;SDS011;7459;53.590;10.062;2023-05-10T07:44:03;5.73;;;3.30;;
14736;SDS011;7459;53.590;10.062;2023-05-10T07:46:30;7.00;;;3.25;;
14736;SDS011;7459;53.590;10.062;2023-05-10T07:48:56;6.57;;;3.03;;
14736;SDS011;7459;53.590;10.062;2023-05-10T07:51:22;6.72;;;3.30;;
14736;SDS011;7459;53.590;10.062;2023-05-10T07:53:47;9.20;;;3.40;;
14736;SDS011;7459;53.590;10.062;2023-05-10T07:56:30;7.05;;;3.20;;
14736;SDS011;7459;53.590;10.062;2023-05-10T07:58:57;8.98;;;2.80;;
14736;SDS011;7459;53.590;10.062;2023-05-10T08:01:32;6.75;;;2.78;;
14736;SDS011;7459;53.590;10.062;2023-05-10T08:03:59;8.10;;;3.28;;
14736;SDS011;7459;53.590;10.062;2023-05-10T08:06:25;5.63;;;2.97;;
14736;SDS011;7459;53.590;10.062;2023-05-10T08:08:53;6.97;;;2.83;;
14736;SDS011;7459;53.590;10.062;2023-05-10T08:11:22;7.30;;;3.08;;
14736;SDS011;7459;53.590;10.062;2023-05-10T08:13:48;6.20;;;2.80;;
14736;SDS011;7459;53.590;10.062;2023-05-10T08:16:15;5.35;;;2.90;;
14736;SDS011;7459;53.590;10.062;2023-05-10T08:18:42;6.27;;;3.03;;
14736;SDS011;7459;53.590;10.062;2023-05-10T08:21:10;6.13;;;2.75;;
14736;SDS011;7459;53.590;10.062;2023-05-10T08:23:38;7.40;;;3.40;;
14736;SDS011;7459;53.590;10.062;2023-05-10T08:26:04;8.30;;;3.10;;
14736;SDS011;7459;53.590;10.062;2023-05-10T08:28:31;8.68;;;3.10;;
14736;SDS011;7459;53.590;10.062;2023-05-10T08:30:57;6.53;;;3.40;;
14736;SDS011;7459;53.590;10.062;2023-05-10T08:33:22;7.47;;;3.00;;
14736;SDS011;7459;53.590;10.062;2023-05-10T08:35:48;6.20;;;3.03;;
14736;SDS011;7459;53.590;10.062;2023-05-10T08:38:14;6.60;;;3.50;;
14736;SDS011;7459;53.590;10.062;2023-05-10T08:40:41;6.17;;;3.30;;
14736;SDS011;7459;53.590;10.062;2023-05-10T08:43:09;7.03;;;3.53;;
14736;SDS011;7459;53.590;10.062;2023-05-10T08:45:41;9.70;;;3.35;;
14736;SDS011;7459;53.590;10.062;2023-05-10T08:48:10;6.10;;;3.07;;
14736;SDS011;7459;53.590;10.062;2023-05-10T08:50:37;10.70;;;3.40;;
14736;SDS011;7459;53.590;10.062;2023-05-10T08:53:11;6.00;;;3.38;;
14736;SDS011;7459;53.590;10.062;2023-05-10T08:55:38;6.00;;;3.40;;
14736;SDS011;7459;53.590;10.062;2023-05-10T08:58:07;6.18;;;3.03;;
14736;SDS011;7459;53.590;10.062;2023-05-10T09:00:34;8.47;;;3.53;;
14736;SDS011;7459;53.590;10.062;2023-05-10T09:03:02;8.25;;;3.03;;
14736;SDS011;7459;53.590;10.062;2023-05-10T09:05:29;7.90;;;3.65;;
14736;SDS011;7459;53.590;10.062;2023-05-10T09:07:55;6.55;;;3.53;;
14736;SDS011;7459;53.590;10.062;2023-05-10T09:10:21;7.67;;;2.90;;
14736;SDS011;7459;53.590;10.062;2023-05-10T09:12:50;7.65;;;4.00;;
14736;SDS011;7459;53.590;10.062;2023-05-10T09:15:17;6.25;;;3.10;;
14736;SDS011;7459;53.590;10.062;2023-05-10T09:17:46;9.40;;;3.72;;
14736;SDS011;7459;53.590;10.062;2023-05-10T09:20:14;7.30;;;3.60;;
14736;SDS011;7459;53.590;10.062;2023-05-10T09:22:42;6.82;;;3.53;;
14736;SDS011;7459;53.590;10.062;2023-05-10T09:25:12;8.77;;;3.63;;
14736;SDS011;7459;53.590;10.062;2023-05-10T09:27:43;7.93;;;2.97;;
14736;SDS011;7459;53.590;10.062;2023-05-10T09:30:19;8.43;;;3.78;;
14736;SDS011;7459;53.590;10.062;2023-05-10T09:32:53;9.83;;;3.40;;
14736;SDS011;7459;53.590;10.062;2023-05-10T09:35:20;8.30;;;3.72;;
14736;SDS011;7459;53.590;10.062;2023-05-10T09:37:50;10.60;;;3.75;;
14736;SDS011;7459;53.590;10.062;2023-05-10T09:40:22;7.05;;;3.90;;
14736;SDS011;7459;53.590;10.062;2023-05-10T09:42:53;9.32;;;3.60;;
14736;SDS011;7459;53.590;10.062;2023-05-10T09:45:28;9.03;;;3.13;;
14736;SDS011;7459;53.590;10.062;2023-05-10T09:47:56;10.55;;;3.42;;
14736;SDS011;7459;53.590;10.062;2023-05-10T09:50:22;7.88;;;3.92;;
14736;SDS011;7459;53.590;10.062;2023-05-10T09:52:52;7.13;;;3.90;;
14736;SDS011;7459;53.590;10.062;2023-05-10T09:55:23;6.55;;;3.83;;
14736;SDS011;7459;53.590;10.062;2023-05-10T09:58:06;7.57;;;4.27;;
14736;SDS011;7459;53.590;10.062;2023-05-10T10:00:39;8.07;;;4.00;;
14736;SDS011;7459;53.590;10.062;2023-05-10T10:03:15;7.22;;;3.70;;
14736;SDS011;7459;53.590;10.062;2023-05-10T10:05:45;9.32;;;4.60;;
14736;SDS011;7459;53.590;10.062;2023-05-10T10:08:13;15.73;;;5.10;;
14736;SDS011;7459;53.590;10.062;2023-05-10T10:10:40;7.77;;;4.60;;
14736;SDS011;7459;53.590;10.062;2023-05-10T10:13:06;9.27;;;4.00;;
14736;SDS011;7459;53.590;10.062;2023-05-10T10:15:33;8.27;;;4.07;;
14736;SDS011;7459;53.590;10.062;2023-05-10T10:18:01;11.18;;;4.82;;
14736;SDS011;7459;53.590;10.062;2023-05-10T10:20:28;8.88;;;4.70;;
14736;SDS011;7459;53.590;10.062;2023-05-10T10:22:54;9.77;;;4.47;;
14736;SDS011;7459;53.590;10.062;2023-05-10T10:25:21;8.07;;;4.20;;
14736;SDS011;7459;53.590;10.062;2023-05-10T10:36:14;8.32;;;4.90;;
14736;SDS011;7459;53.590;10.062;2023-05-10T10:52:13;8.85;;;5.20;;
14736;SDS011;7459;53.590;10.062;2023-05-10T10:57:52;9.67;;;5.13;;
14736;SDS011;7459;53.590;10.062;2023-05-10T11:00:31;11.70;;;5.30;;
14736;SDS011;7459;53.590;10.062;2023-05-10T11:03:07;9.00;;;5.13;;
14736;SDS011;7459;53.590;10.062;2023-05-10T11:05:46;9.18;;;5.25;;
14736;SDS011;7459;53.590;10.062;2023-05-10T11:08:20;12.02;;;5.40;;
14736;SDS011;7459;53.590;10.062;2023-05-10T11:13:28;11.32;;;5.68;;
14736;SDS011;7459;53.590;10.062;2023-05-10T11:15:59;13.82;;;5.80;;
14736;SDS011;7459;53.590;10.062;2023-05-10T11:18:52;9.35;;;5.28;;
14736;SDS011;7459;53.590;10.062;2023-05-10T11:21:44;9.98;;;5.70;;
14736;SDS011;7459;53.590;10.062;2023-05-10T11:24:15;11.17;;;5.23;;
14736;SDS011;7459;53.590;10.062;2023-05-10T11:26:45;11.88;;;5.60;;
14736;SDS011;7459;53.590;10.062;2023-05-10T11:29:15;10.70;;;5.28;;
14736;SDS011;7459;53.590;10.062;2023-05-10T11:31:42;12.95;;;5.75;;
14736;SDS011;7459;53.590;10.062;2023-05-10T11:34:10;14.32;;;5.90;;
14736;SDS011;7459;53.590;10.062;2023-05-10T11:36:36;11.33;;;6.03;;
14736;SDS011;7459;53.590;10.062;2023-05-10T11:39:02;13.95;;;5.72;;
14736;SDS011;7459;53.590;10.062;2023-05-10T11:41:29;10.20;;;5.57;;
14736;SDS011;7459;53.590;10.062;2023-05-10T11:43:56;10.88;;;6.10;;
14736;SDS011;7459;53.590;10.062;2023-05-10T11:46:23;10.90;;;5.73;;
14736;SDS011;7459;53.590;10.062;2023-05-10T11:49:00;11.77;;;6.25;;
14736;SDS011;7459;53.590;10.062;2023-05-10T11:51:28;11.55;;;5.88;;
14736;SDS011;7459;53.590;10.062;2023-05-10T11:54:04;10.45;;;6.20;;
14736;SDS011;7459;53.590;10.062;2023-05-10T11:56:33;11.07;;;6.68;;
14736;SDS011;7459;53.590;10.062;2023-05-10T11:58:59;12.63;;;6.33;;
14736;SDS011;7459;53.590;10.062;2023-05-10T12:01:27;11.27;;;7.05;;
14736;SDS011;7459;53.590;10.062;2023-05-10T12:03:55;12.18;;;6.82;;
14736;SDS011;7459;53.590;10.062;2023-05-10T12:06:29;12.30;;;7.68;;
14736;SDS011;7459;53.590;10.062;2023-05-10T12:08:57;11.87;;;7.67;;
14736;SDS011;7459;53.590;10.062;2023-05-10T12:11:27;13.55;;;6.82;;
14736;SDS011;7459;53.590;10.062;2023-05-10T12:13:55;11.75;;;6.20;;
14736;SDS011;7459;53.590;10.062;2023-05-10T12:16:22;11.68;;;6.95;;
14736;SDS011;7459;53.590;10.062;2023-05-10T12:18:51;10.30;;;6.15;;
14736;SDS011;7459;53.590;10.062;2023-05-10T12:21:19;10.03;;;6.17;;
14736;SDS011;7459;53.590;10.062;2023-05-10T12:23:46;11.35;;;6.10;;
14736;SDS011;7459;53.590;10.062;2023-05-10T12:26:15;12.40;;;7.32;;
14736;SDS011;7459;53.590;10.062;2023-05-10T12:28:41;11.00;;;6.50;;
14736;SDS011;7459;53.590;10.062;2023-05-10T12:31:07;11.40;;;6.93;;
14736;SDS011;7459;53.590;10.062;2023-05-10T12:33:37;12.00;;;7.20;;
14736;SDS011;7459;53.590;10.062;2023-05-10T12:36:10;12.05;;;6.82;;
14736;SDS011;7459;53.590;10.062;2023-05-10T12:38:38;11.75;;;7.15;;
14736;SDS011;7459;53.590;10.062;2023-05-10T12:41:11;10.53;;;6.20;;
14736;SDS011;7459;53.590;10.062;2023-05-10T12:43:40;12.45;;;6.28;;
14736;SDS011;7459;53.590;10.062;2023-05-10T12:48:37;10.82;;;6.13;;
14736;SDS011;7459;53.590;10.062;2023-05-10T12:51:04;13.43;;;6.55;;
14736;SDS011;7459;53.590;10.062;2023-05-10T12:53:34;12.30;;;6.10;;
14736;SDS011;7459;53.590;10.062;2023-05-10T12:56:00;11.02;;;6.32;;
14736;SDS011;7459;53.590;10.062;2023-05-10T12:58:26;12.85;;;7.10;;
14736;SDS011;7459;53.590;10.062;2023-05-10T13:00:52;12.17;;;7.10;;
14736;SDS011;7459;53.590;10.062;2023-05-10T13:03:18;10.55;;;5.78;;
14736;SDS011;7459;53.590;10.062;2023-05-10T13:05:44;8.88;;;5.15;;
14736;SDS011;7459;53.590;10.062;2023-05-10T13:08:09;10.43;;;5.43;;
14736;SDS011;7459;53.590;10.062;2023-05-10T13:10:35;10.23;;;5.05;;
14736;SDS011;7459;53.590;10.062;2023-05-10T13:13:01;10.77;;;6.10;;
14736;SDS011;7459;53.590;10.062;2023-05-10T13:15:27;11.27;;;5.93;;
14736;SDS011;7459;53.590;10.062;2023-05-10T13:17:53;11.38;;;5.18;;
14736;SDS011;7459;53.590;10.062;2023-05-10T13:20:19;10.43;;;5.50;;
14736;SDS011;7459;53.590;10.062;2023-05-10T13:22:45;11.43;;;5.78;;
14736;SDS011;7459;53.590;10.062;2023-05-10T13:25:11;9.07;;;5.15;;
14736;SDS011;7459;53.590;10.062;2023-05-10T13:27:38;11.57;;;6.70;;
14736;SDS011;7459;53.590;10.062;2023-05-10T13:30:06;9.90;;;5.80;;
14736;SDS011;7459;53.590;10.062;2023-05-10T13:32:33;11.02;;;6.47;;
14736;SDS011;7459;53.590;10.062;2023-05-10T13:35:00;9.50;;;5.45;;
14736;SDS011;7459;53.590;10.062;2023-05-10T13:37:28;9.43;;;5.85;;
14736;SDS011;7459;53.590;10.062;2023-05-10T13:39:55;11.20;;;5.57;;
14736;SDS011;7459;53.590;10.062;2023-05-10T13:42:21;10.48;;;5.68;;
14736;SDS011;7459;53.590;10.062;2023-05-10T13:44:48;8.68;;;4.65;;
14736;SDS011;7459;53.590;10.062;2023-05-10T13:47:15;9.23;;;4.50;;
14736;SDS011;7459;53.590;10.062;2023-05-10T13:49:41;9.03;;;4.50;;
14736;SDS011;7459;53.590;10.062;2023-05-10T13:52:07;9.55;;;4.88;;
14736;SDS011;7459;53.590;10.062;2023-05-10T13:54:33;9.02;;;4.90;;
14736;SDS011;7459;53.590;10.062;2023-05-10T13:56:59;8.40;;;4.90;;
14736;SDS011;7459;53.590;10.062;2023-05-10T13:59:25;8.77;;;5.03;;
14736;SDS011;7459;53.590;10.062;2023-05-10T14:01:51;8.27;;;4.70;;
14736;SDS011;7459;53.590;10.062;2023-05-10T14:04:16;7.80;;;4.40;;
14736;SDS011;7459;53.590;10.062;2023-05-10T14:06:42;8.57;;;4.97;;
14736;SDS011;7459;53.590;10.062;2023-05-10T14:09:08;9.00;;;5.13;;
14736;SDS011;7459;53.590;10.062;2023-05-10T14:11:34;9.65;;;5.55;;
14736;SDS011;7459;53.590;10.062;2023-05-10T14:14:00;10.02;;;5.72;;
14736;SDS011;7459;53.590;10.062;2023-05-10T14:16:25;8.57;;;5.43;;
14736;SDS011;7459;53.590;10.062;2023-05-10T14:18:52;11.70;;;5.68;;
14736;SDS011;7459;53.590;10.062;2023-05-10T14:21:17;9.70;;;6.47;;
14736;SDS011;7459;53.590;10.062;2023-05-10T14:23:43;9.38;;;5.55;;
14736;SDS011;7459;53.590;10.062;2023-05-10T14:26:09;10.20;;;6.53;;
14736;SDS011;7459;53.590;10.062;2023-05-10T14:28:34;7.97;;;5.38;;
14736;SDS011;7459;53.590;10.062;2023-05-10T14:31:00;12.80;;;5.73;;
14736;SDS011;7459;53.590;10.062;2023-05-10T14:33:26;8.45;;;5.03;;
14736;SDS011;7459;53.590;10.062;2023-05-10T14:35:53;9.10;;;5.18;;
14736;SDS011;7459;53.590;10.062;2023-05-10T14:38:21;10.10;;;5.90;;
14736;SDS011;7459;53.590;10.062;2023-05-10T14:40:47;8.80;;;5.97;;
14736;SDS011;7459;53.590;10.062;2023-05-10T14:43:12;10.07;;;6.40;;
14736;SDS011;7459;53.590;10.062;2023-05-10T14:45:38;9.82;;;5.15;;
14736;SDS011;7459;53.590;10.062;2023-05-10T14:48:04;7.97;;;4.87;;
14736;SDS011;7459;53.590;10.062;2023-05-10T14:50:30;7.88;;;4.50;;
14736;SDS011;7459;53.590;10.062;2023-05-10T14:52:56;10.48;;;5.60;;
14736;SDS011;7459;53.590;10.062;2023-05-10T14:55:23;9.77;;;4.80;;
14736;SDS011;7459;53.590;10.062;2023-05-10T14:57:49;8.00;;;4.50;;
14736;SDS011;7459;53.590;10.062;2023-05-10T15:00:15;9.45;;;4.97;;
14736;SDS011;7459;53.590;10.062;2023-05-10T15:02:41;9.65;;;4.38;;
14736;SDS011;7459;53.590;10.062;2023-05-10T15:05:07;7.93;;;4.75;;
14736;SDS011;7459;53.590;10.062;2023-05-10T15:07:33;8.63;;;4.77;;
14736;SDS011;7459;53.590;10.062;2023-05-10T15:09:59;6.90;;;4.22;;
14736;SDS011;7459;53.590;10.062;2023-05-10T15:12:25;7.50;;;4.30;;
14736;SDS011;7459;53.590;10.062;2023-05-10T15:14:50;6.97;;;4.47;;
14736;SDS011;7459;53.590;10.062;2023-05-10T15:17:16;11.10;;;4.68;;
14736;SDS011;7459;53.590;10.062;2023-05-10T15:19:42;8.97;;;4.30;;
14736;SDS011;7459;53.590;10.062;2023-05-10T15:22:08;7.72;;;3.70;;
14736;SDS011;7459;53.590;10.062;2023-05-10T15:24:33;7.07;;;4.17;;
14736;SDS011;7459;53.590;10.062;2023-05-10T15:26:59;7.95;;;4.47;;
14736;SDS011;7459;53.590;10.062;2023-05-10T15:29:25;12.32;;;5.75;;
14736;SDS011;7459;53.590;10.062;2023-05-10T15:31:51;15.13;;;5.13;;